Date,TemperatureHighF,TemperatureAvgF,TemperatureLowF,DewpointHighF,DewpointAvgF,DewpointLowF,HumidityHigh,HumidityAvg,HumidityLow,PressureMaxIn,PressureMinIn,WindSpeedMaxMPH,WindSpeedAvgMPH,GustSpeedMaxMPH,PrecipitationSumIn
2013-3-1,45,38,32,36,30,26,96,75,54,29.72,29.56,5,2,9,0.00
2013-3-2,40,36,33,29,27,26,79,70,61,29.72,29.65,4,2,6,0.00
2013-3-3,37,32,29,28,25,21,83,74,64,29.69,29.61,5,2,9,0.00
2013-3-4,37,32,28,24,22,20,75,68,57,29.83,29.69,8,4,14,0.00
2013-3-5,48,37,30,30,26,21,80,64,49,30.06,29.83,5,1,9,0.00
2013-3-6,42,38,34,36,32,28,86,79,69,30.07,30.01,5,2,9,0.02
2013-3-7,38,34,32,33,30,27,94,85,73,30.08,30.02,5,3,11,0.15
2013-3-8,41,36,31,32,29,26,96,79,58,30.19,29.97,5,2,17,0.20
2013-3-9,59,43,32,30,23,12,78,49,16,30.34,30.18,4,1,7,0.00
2013-3-10,55,40,25,35,30,23,94,70,42,30.42,30.27,4,1,8,0.00
2013-3-11,52,44,37,43,38,33,87,79,65,30.32,30.11,4,2,8,0.00
2013-3-12,55,50,45,53,48,43,95,92,88,30.12,29.68,4,1,11,1.10
2013-3-15,43,36,26,31,22,9,91,59,33,29.92,29.68,5,2,9,0.00
2013-3-16,34,30,26,26,20,16,76,64,52,29.89,29.75,5,1,8,0.00
2013-3-18,36,32,29,27,22,14,91,69,39,30.23,30.18,3,2,6,0.00
2013-3-19,36,32,29,34,31,27,96,94,91,30.16,29.67,5,1,5,0.32
2013-3-20,41,32,25,30,22,20,92,68,43,29.82,29.74,5,2,12,0.07
2013-3-21,43,32,23,22,18,12,90,60,33,29.83,29.61,4,1,10,0.07
2013-3-22,40,32,21,27,20,14,78,62,46,29.81,29.66,4,1,8,0.00
2013-3-23,42,36,31,26,23,20,76,58,41,29.85,29.73,9,4,12,0.00
2013-3-24,48,40,31,27,24,22,70,55,40,29.88,29.72,4,2,8,0.00
2013-3-25,48,39,32,30,27,24,74,61,41,29.77,29.50,3,1,6,0.00
2013-3-26,49,41,30,31,27,21,75,58,38,29.82,29.57,4,1,7,0.00
2013-3-27,52,40,25,31,27,22,91,62,37,29.90,29.79,7,2,11,0.00
2013-3-28,52,44,33,36,32,28,84,64,45,30.05,29.90,4,1,7,0.00
2013-3-29,57,46,32,35,32,29,92,61,41,30.08,30.00,5,2,8,0.00
2013-3-30,57,46,32,34,27,20,89,52,24,30.11,30.02,5,1,7,0.00
2013-3-31,58,44,27,42,31,24,88,64,31,30.12,29.69,7,2,14,0.06